Chokurdakh, Russia
Current Conditions -  °F | °C
As of 1:00 AM on Thursday 29 Jan 2015 (Local Time) from UHMM Reporting Station
Blowing Snow Blowing Snow  
Wind Chill:   Ceiling: 300
Heat Index: 19°   Visibility: 0.18mi
Dew Point: 18°   Wind: 20mph
Humidity: 93%   Direction: 110°ESE
Pressure: 29.65"   Gusts: 31mph
Location:  70.62°N, 147.87°E
Report Text: UHMM 281400Z 11009G14MPS 0300 R10/0300N +SHSN BLSN VV003M07/M08 Q1004 RMK QFE738 QBB090
Loading
Personal Weather Stations






























Interactive Weather Map New forecast layout! Learn more

10-Day Weather Forecast

Advertisements
Track Severe Weather on mobile